sensor_id;sensor_type;location;lat;lon;timestamp;pressure;altitude;pressure_sealevel;temperature;humidity
9695;BME280;4690;52.422;13.486;2023-08-06T00:00:06;100532.06;;;20.15;75.44
9695;BME280;4690;52.422;13.486;2023-08-06T00:12:54;100529.53;;;19.95;77.03
9695;BME280;4690;52.422;13.486;2023-08-06T00:15:20;100524.19;;;19.98;76.45
9695;BME280;4690;52.422;13.486;2023-08-06T00:17:46;100519.78;;;19.97;76.51
9695;BME280;4690;52.422;13.486;2023-08-06T00:20:12;100523.59;;;20.01;76.45
9695;BME280;4690;52.422;13.486;2023-08-06T00:22:38;100519.41;;;20.04;76.55
9695;BME280;4690;52.422;13.486;2023-08-06T00:25:05;100516.34;;;20.05;76.21
9695;BME280;4690;52.422;13.486;2023-08-06T00:27:31;100514.44;;;20.01;76.49
9695;BME280;4690;52.422;13.486;2023-08-06T00:29:58;100517.28;;;19.96;76.64
9695;BME280;4690;52.422;13.486;2023-08-06T00:32:24;100507.22;;;20.00;76.67
9695;BME280;4690;52.422;13.486;2023-08-06T00:34:50;100524.75;;;20.00;76.45
9695;BME280;4690;52.422;13.486;2023-08-06T00:37:19;100511.66;;;20.01;76.55
9695;BME280;4690;52.422;13.486;2023-08-06T00:39:45;100517.00;;;19.97;76.82
9695;BME280;4690;52.422;13.486;2023-08-06T00:42:11;100513.72;;;19.90;77.19
9695;BME280;4690;52.422;13.486;2023-08-06T00:44:38;100508.16;;;19.90;77.05
9695;BME280;4690;52.422;13.486;2023-08-06T00:47:07;100505.50;;;19.80;77.79
9695;BME280;4690;52.422;13.486;2023-08-06T00:49:35;100507.19;;;19.76;78.34
9695;BME280;4690;52.422;13.486;2023-08-06T00:52:03;100511.13;;;19.75;78.98
9695;BME280;4690;52.422;13.486;2023-08-06T00:54:30;100507.50;;;19.74;79.04
9695;BME280;4690;52.422;13.486;2023-08-06T00:56:57;100500.59;;;19.72;79.19
9695;BME280;4690;52.422;13.486;2023-08-06T00:59:24;100497.03;;;19.66;79.27
9695;BME280;4690;52.422;13.486;2023-08-06T01:01:51;100511.50;;;19.63;79.80
9695;BME280;4690;52.422;13.486;2023-08-06T01:04:17;100505.16;;;19.57;80.07
9695;BME280;4690;52.422;13.486;2023-08-06T01:09:23;100507.06;;;19.57;80.79
9695;BME280;4690;52.422;13.486;2023-08-06T01:12:45;100503.25;;;19.53;81.08
9695;BME280;4690;52.422;13.486;2023-08-06T01:15:29;100497.91;;;19.56;80.97
9695;BME280;4690;52.422;13.486;2023-08-06T01:17:55;100492.34;;;19.56;81.11
9695;BME280;4690;52.422;13.486;2023-08-06T01:20:21;100492.91;;;19.58;81.20
9695;BME280;4690;52.422;13.486;2023-08-06T01:22:46;100488.97;;;19.59;81.28
9695;BME280;4690;52.422;13.486;2023-08-06T01:25:16;100481.50;;;19.60;81.32
9695;BME280;4690;52.422;13.486;2023-08-06T01:27:49;100484.56;;;19.58;81.19
9695;BME280;4690;52.422;13.486;2023-08-06T01:30:29;100486.19;;;19.59;81.38
9695;BME280;4690;52.422;13.486;2023-08-06T01:33:00;100479.53;;;19.60;81.62
9695;BME280;4690;52.422;13.486;2023-08-06T01:35:31;100473.16;;;19.60;81.36
9695;BME280;4690;52.422;13.486;2023-08-06T01:38:00;100467.59;;;19.60;81.42
9695;BME280;4690;52.422;13.486;2023-08-06T01:40:27;100470.66;;;19.58;81.69
9695;BME280;4690;52.422;13.486;2023-08-06T01:42:55;100468.69;;;19.59;81.61
9695;BME280;4690;52.422;13.486;2023-08-06T01:45:20;100461.78;;;19.56;81.55
9695;BME280;4690;52.422;13.486;2023-08-06T01:47:46;100459.59;;;19.53;81.92
9695;BME280;4690;52.422;13.486;2023-08-06T01:50:12;100457.13;;;19.52;81.53
9695;BME280;4690;52.422;13.486;2023-08-06T01:52:38;100455.78;;;19.44;81.83
9695;BME280;4690;52.422;13.486;2023-08-06T01:55:04;100455.03;;;19.38;82.48
9695;BME280;4690;52.422;13.486;2023-08-06T01:57:29;100444.25;;;19.32;82.28
9695;BME280;4690;52.422;13.486;2023-08-06T01:59:55;100442.03;;;19.29;82.30
9695;BME280;4690;52.422;13.486;2023-08-06T02:02:21;100441.53;;;19.26;82.58
9695;BME280;4690;52.422;13.486;2023-08-06T02:04:47;100441.59;;;19.16;83.17
9695;BME280;4690;52.422;13.486;2023-08-06T02:07:12;100444.16;;;19.13;83.26
9695;BME280;4690;52.422;13.486;2023-08-06T02:09:38;100444.19;;;19.08;83.08
9695;BME280;4690;52.422;13.486;2023-08-06T02:12:04;100430.88;;;19.04;83.47
9695;BME280;4690;52.422;13.486;2023-08-06T02:14:32;100429.78;;;19.00;83.53
9695;BME280;4690;52.422;13.486;2023-08-06T02:16:57;100429.00;;;18.95;83.81
9695;BME280;4690;52.422;13.486;2023-08-06T02:19:23;100434.88;;;18.93;83.84
9695;BME280;4690;52.422;13.486;2023-08-06T02:21:49;100429.31;;;18.93;84.17
9695;BME280;4690;52.422;13.486;2023-08-06T02:24:14;100429.06;;;18.90;84.31
9695;BME280;4690;52.422;13.486;2023-08-06T02:26:40;100422.66;;;18.89;84.52
9695;BME280;4690;52.422;13.486;2023-08-06T02:29:06;100415.47;;;18.88;84.64
9695;BME280;4690;52.422;13.486;2023-08-06T02:31:31;100416.06;;;18.85;84.70
9695;BME280;4690;52.422;13.486;2023-08-06T02:33:57;100413.56;;;18.84;84.62
9695;BME280;4690;52.422;13.486;2023-08-06T02:36:24;100419.97;;;18.84;84.68
9695;BME280;4690;52.422;13.486;2023-08-06T02:38:50;100408.31;;;18.82;85.27
9695;BME280;4690;52.422;13.486;2023-08-06T02:41:16;100406.34;;;18.83;85.29
9695;BME280;4690;52.422;13.486;2023-08-06T02:43:41;100408.06;;;18.78;85.21
9695;BME280;4690;52.422;13.486;2023-08-06T02:46:07;100406.38;;;18.77;85.94
9695;BME280;4690;52.422;13.486;2023-08-06T02:48:33;100398.06;;;18.77;86.08
9695;BME280;4690;52.422;13.486;2023-08-06T02:50:59;100400.03;;;18.72;86.25
9695;BME280;4690;52.422;13.486;2023-08-06T02:53:25;100394.47;;;18.72;86.64
9695;BME280;4690;52.422;13.486;2023-08-06T02:55:51;100401.16;;;18.71;86.65
9695;BME280;4690;52.422;13.486;2023-08-06T02:58:17;100404.19;;;18.69;86.78
9695;BME280;4690;52.422;13.486;2023-08-06T03:01:01;100403.69;;;18.67;86.90
9695;BME280;4690;52.422;13.486;2023-08-06T03:03:30;100399.53;;;18.65;87.07
9695;BME280;4690;52.422;13.486;2023-08-06T03:05:55;100398.16;;;18.62;87.26
9695;BME280;4690;52.422;13.486;2023-08-06T03:08:21;100396.78;;;18.59;87.13
9695;BME280;4690;52.422;13.486;2023-08-06T03:10:49;100407.06;;;18.59;87.59
9695;BME280;4690;52.422;13.486;2023-08-06T03:13:16;100394.84;;;18.60;87.66
9695;BME280;4690;52.422;13.486;2023-08-06T03:15:42;100387.91;;;18.57;87.53
9695;BME280;4690;52.422;13.486;2023-08-06T03:18:08;100387.09;;;18.57;87.60
9695;BME280;4690;52.422;13.486;2023-08-06T03:20:34;100381.00;;;18.55;87.94
9695;BME280;4690;52.422;13.486;2023-08-06T03:23:00;100379.34;;;18.54;88.57
9695;BME280;4690;52.422;13.486;2023-08-06T03:25:25;100376.56;;;18.54;88.52
9695;BME280;4690;52.422;13.486;2023-08-06T03:27:51;100362.16;;;18.52;88.92
9695;BME280;4690;52.422;13.486;2023-08-06T03:30:17;100358.84;;;18.50;89.20
9695;BME280;4690;52.422;13.486;2023-08-06T03:32:43;100358.84;;;18.50;89.37
9695;BME280;4690;52.422;13.486;2023-08-06T03:35:08;100349.41;;;18.51;89.49
9695;BME280;4690;52.422;13.486;2023-08-06T03:37:34;100351.88;;;18.52;89.71
9695;BME280;4690;52.422;13.486;2023-08-06T03:40:00;100352.19;;;18.51;89.88
9695;BME280;4690;52.422;13.486;2023-08-06T03:42:26;100349.16;;;18.47;90.00
9695;BME280;4690;52.422;13.486;2023-08-06T03:44:52;100348.03;;;18.48;90.22
9695;BME280;4690;52.422;13.486;2023-08-06T03:47:17;100349.69;;;18.49;90.29
9695;BME280;4690;52.422;13.486;2023-08-06T03:49:43;100343.31;;;18.49;90.79
9695;BME280;4690;52.422;13.486;2023-08-06T03:52:09;100340.53;;;18.49;90.85
9695;BME280;4690;52.422;13.486;2023-08-06T03:54:34;100335.81;;;18.49;90.93
9695;BME280;4690;52.422;13.486;2023-08-06T03:57:00;100334.97;;;18.49;91.08
9695;BME280;4690;52.422;13.486;2023-08-06T03:59:26;100334.16;;;18.48;90.89
9695;BME280;4690;52.422;13.486;2023-08-06T04:01:52;100326.38;;;18.50;90.97
9695;BME280;4690;52.422;13.486;2023-08-06T04:04:18;100324.47;;;18.46;90.70
9695;BME280;4690;52.422;13.486;2023-08-06T04:06:43;100321.16;;;18.44;90.76
9695;BME280;4690;52.422;13.486;2023-08-06T04:09:09;100314.22;;;18.41;90.79
9695;BME280;4690;52.422;13.486;2023-08-06T04:11:35;100311.44;;;18.41;91.00
9695;BME280;4690;52.422;13.486;2023-08-06T04:14:00;100315.34;;;18.40;91.43
9695;BME280;4690;52.422;13.486;2023-08-06T04:16:26;100313.41;;;18.41;91.82
9695;BME280;4690;52.422;13.486;2023-08-06T04:18:52;100311.44;;;18.41;92.04
9695;BME280;4690;52.422;13.486;2023-08-06T04:21:19;100303.69;;;18.43;91.97
9695;BME280;4690;52.422;13.486;2023-08-06T04:23:45;100306.69;;;18.47;91.94
9695;BME280;4690;52.422;13.486;2023-08-06T04:26:10;100304.78;;;18.47;91.46
9695;BME280;4690;52.422;13.486;2023-08-06T04:28:36;100296.44;;;18.47;91.67
9695;BME280;4690;52.422;13.486;2023-08-06T04:31:02;100292.81;;;18.47;92.00
9695;BME280;4690;52.422;13.486;2023-08-06T04:33:28;100292.03;;;18.41;92.13
9695;BME280;4690;52.422;13.486;2023-08-06T04:35:55;100290.38;;;18.40;92.38
9695;BME280;4690;52.422;13.486;2023-08-06T04:38:23;100282.88;;;18.41;92.50
9695;BME280;4690;52.422;13.486;2023-08-06T04:40:49;100279.00;;;18.42;92.39
9695;BME280;4690;52.422;13.486;2023-08-06T04:43:14;100277.06;;;18.42;92.43
9695;BME280;4690;52.422;13.486;2023-08-06T04:45:49;100279.00;;;18.42;92.53
9695;BME280;4690;52.422;13.486;2023-08-06T04:48:15;100268.75;;;18.42;92.17
9695;BME280;4690;52.422;13.486;2023-08-06T04:50:49;100265.13;;;18.42;92.20
9695;BME280;4690;52.422;13.486;2023-08-06T04:53:16;100264.25;;;18.46;92.29
9695;BME280;4690;52.422;13.486;2023-08-06T04:55:42;100265.94;;;18.47;92.37
9695;BME280;4690;52.422;13.486;2023-08-06T04:58:10;100277.25;;;18.51;92.05
9695;BME280;4690;52.422;13.486;2023-08-06T05:00:36;100266.97;;;18.51;92.09
9695;BME280;4690;52.422;13.486;2023-08-06T05:03:02;100263.63;;;18.54;92.41
9695;BME280;4690;52.422;13.486;2023-08-06T05:05:28;100267.53;;;18.53;92.46
9695;BME280;4690;52.422;13.486;2023-08-06T05:07:56;100268.63;;;18.52;92.60
9695;BME280;4690;52.422;13.486;2023-08-06T05:10:25;100266.69;;;18.53;92.40
9695;BME280;4690;52.422;13.486;2023-08-06T05:12:51;100263.06;;;18.52;92.71
9695;BME280;4690;52.422;13.486;2023-08-06T05:15:17;100259.19;;;18.53;92.75
9695;BME280;4690;52.422;13.486;2023-08-06T05:17:43;100256.13;;;18.55;92.55
9695;BME280;4690;52.422;13.486;2023-08-06T05:20:10;100253.88;;;18.57;92.39
9695;BME280;4690;52.422;13.486;2023-08-06T05:22:36;100246.94;;;18.59;92.67
9695;BME280;4690;52.422;13.486;2023-08-06T05:25:01;100246.34;;;18.63;92.59
9695;BME280;4690;52.422;13.486;2023-08-06T05:27:27;100243.00;;;18.60;92.66
9695;BME280;4690;52.422;13.486;2023-08-06T05:29:55;100238.59;;;18.59;92.51
9695;BME280;4690;52.422;13.486;2023-08-06T05:32:24;100235.81;;;18.59;92.66
9695;BME280;4690;52.422;13.486;2023-08-06T05:34:49;100234.69;;;18.60;92.53
9695;BME280;4690;52.422;13.486;2023-08-06T05:37:15;100232.75;;;18.61;92.59
9695;BME280;4690;52.422;13.486;2023-08-06T05:39:41;100236.06;;;18.63;92.39
9695;BME280;4690;52.422;13.486;2023-08-06T05:42:07;100237.47;;;18.60;92.53
9695;BME280;4690;52.422;13.486;2023-08-06T05:44:33;100233.88;;;18.60;92.47
9695;BME280;4690;52.422;13.486;2023-08-06T05:46:59;100236.66;;;18.60;92.35
9695;BME280;4690;52.422;13.486;2023-08-06T05:49:24;100235.00;;;18.59;92.63
9695;BME280;4690;52.422;13.486;2023-08-06T05:51:50;100235.81;;;18.59;92.38
9695;BME280;4690;52.422;13.486;2023-08-06T05:54:19;100239.41;;;18.60;92.93
9695;BME280;4690;52.422;13.486;2023-08-06T05:56:45;100228.63;;;18.58;92.95
9695;BME280;4690;52.422;13.486;2023-08-06T05:59:10;100230.28;;;18.59;93.12
9695;BME280;4690;52.422;13.486;2023-08-06T06:01:36;100228.31;;;18.60;92.69
9695;BME280;4690;52.422;13.486;2023-08-06T06:04:02;100228.03;;;18.62;92.98
9695;BME280;4690;52.422;13.486;2023-08-06T06:06:28;100226.38;;;18.60;93.24
9695;BME280;4690;52.422;13.486;2023-08-06T06:08:54;100222.50;;;18.62;93.16
9695;BME280;4690;52.422;13.486;2023-08-06T06:11:19;100224.97;;;18.63;93.19
9695;BME280;4690;52.422;13.486;2023-08-06T06:13:51;100223.31;;;18.62;92.79
9695;BME280;4690;52.422;13.486;2023-08-06T06:16:16;100225.78;;;18.64;92.94
9695;BME280;4690;52.422;13.486;2023-08-06T06:18:42;100212.44;;;18.66;93.05
9695;BME280;4690;52.422;13.486;2023-08-06T06:21:08;100215.22;;;18.66;92.81
9695;BME280;4690;52.422;13.486;2023-08-06T06:23:34;100213.25;;;18.66;92.74
9695;BME280;4690;52.422;13.486;2023-08-06T06:25:59;100214.09;;;18.67;93.20
9695;BME280;4690;52.422;13.486;2023-08-06T06:28:25;100212.97;;;18.68;93.09
9695;BME280;4690;52.422;13.486;2023-08-06T06:30:51;100209.63;;;18.71;93.00
9695;BME280;4690;52.422;13.486;2023-08-06T06:33:17;100211.84;;;18.69;92.77
9695;BME280;4690;52.422;13.486;2023-08-06T06:35:43;100206.28;;;18.69;93.18
9695;BME280;4690;52.422;13.486;2023-08-06T06:38:09;100206.84;;;18.71;92.94
9695;BME280;4690;52.422;13.486;2023-08-06T06:40:34;100206.84;;;18.71;93.10
9695;BME280;4690;52.422;13.486;2023-08-06T06:43:00;100202.41;;;18.70;93.44
9695;BME280;4690;52.422;13.486;2023-08-06T06:45:26;100201.84;;;18.73;92.95
9695;BME280;4690;52.422;13.486;2023-08-06T06:47:51;100200.97;;;18.72;93.18
9695;BME280;4690;52.422;13.486;2023-08-06T06:50:17;100199.06;;;18.73;93.22
9695;BME280;4690;52.422;13.486;2023-08-06T06:52:43;100202.38;;;18.75;93.15
9695;BME280;4690;52.422;13.486;2023-08-06T06:55:09;100197.34;;;18.77;93.25
9695;BME280;4690;52.422;13.486;2023-08-06T06:57:35;100202.63;;;18.78;93.10
9695;BME280;4690;52.422;13.486;2023-08-06T07:00:00;100203.44;;;18.79;92.80
9695;BME280;4690;52.422;13.486;2023-08-06T07:02:26;100206.78;;;18.81;93.31
9695;BME280;4690;52.422;13.486;2023-08-06T07:04:52;100196.16;;;18.83;93.38
9695;BME280;4690;52.422;13.486;2023-08-06T07:07:18;100209.22;;;18.83;93.11
9695;BME280;4690;52.422;13.486;2023-08-06T07:09:44;100203.91;;;18.86;93.37
9695;BME280;4690;52.422;13.486;2023-08-06T07:12:10;100206.94;;;18.90;93.19
9695;BME280;4690;52.422;13.486;2023-08-06T07:14:35;100201.06;;;18.91;93.65
9695;BME280;4690;52.422;13.486;2023-08-06T07:17:01;100209.13;;;18.93;93.77
9695;BME280;4690;52.422;13.486;2023-08-06T07:19:27;100207.72;;;18.95;93.38
9695;BME280;4690;52.422;13.486;2023-08-06T07:21:53;100205.97;;;18.99;93.39
9695;BME280;4690;52.422;13.486;2023-08-06T07:24:19;100210.41;;;19.00;93.50
9695;BME280;4690;52.422;13.486;2023-08-06T07:26:45;100208.16;;;19.02;93.35
9695;BME280;4690;52.422;13.486;2023-08-06T07:29:10;100209.84;;;19.03;93.04
9695;BME280;4690;52.422;13.486;2023-08-06T07:31:36;100213.19;;;19.00;93.35
9695;BME280;4690;52.422;13.486;2023-08-06T07:34:02;100208.75;;;18.99;93.22
9695;BME280;4690;52.422;13.486;2023-08-06T07:36:28;100212.34;;;19.00;93.19
9695;BME280;4690;52.422;13.486;2023-08-06T07:38:54;100204.09;;;18.95;92.72
9695;BME280;4690;52.422;13.486;2023-08-06T07:41:24;100205.53;;;18.92;92.84
9695;BME280;4690;52.422;13.486;2023-08-06T07:43:50;100206.09;;;18.89;92.78
9695;BME280;4690;52.422;13.486;2023-08-06T07:46:16;100202.91;;;18.77;93.03
9695;BME280;4690;52.422;13.486;2023-08-06T07:48:42;100204.31;;;18.74;93.41
9695;BME280;4690;52.422;13.486;2023-08-06T07:51:07;100200.16;;;18.72;92.90
9695;BME280;4690;52.422;13.486;2023-08-06T07:53:33;100207.38;;;18.73;92.94
9695;BME280;4690;52.422;13.486;2023-08-06T07:55:59;100200.97;;;18.72;93.11
9695;BME280;4690;52.422;13.486;2023-08-06T07:58:27;100201.28;;;18.71;93.61
9695;BME280;4690;52.422;13.486;2023-08-06T08:00:55;100203.06;;;18.62;93.76
9695;BME280;4690;52.422;13.486;2023-08-06T08:03:20;100209.66;;;18.66;93.83
9695;BME280;4690;52.422;13.486;2023-08-06T08:05:47;100206.13;;;18.60;93.64
9695;BME280;4690;52.422;13.486;2023-08-06T08:08:12;100207.47;;;18.63;93.99
9695;BME280;4690;52.422;13.486;2023-08-06T08:10:38;100205.25;;;18.65;94.18
9695;BME280;4690;52.422;13.486;2023-08-06T08:13:05;100199.94;;;18.68;94.20
9695;BME280;4690;52.422;13.486;2023-08-06T08:15:32;100197.69;;;18.70;94.22
9695;BME280;4690;52.422;13.486;2023-08-06T08:17:59;100201.28;;;18.71;94.20
9695;BME280;4690;52.422;13.486;2023-08-06T08:20:25;100201.84;;;18.73;94.45
9695;BME280;4690;52.422;13.486;2023-08-06T08:22:58;100189.84;;;18.77;94.21
9695;BME280;4690;52.422;13.486;2023-08-06T08:25:24;100193.72;;;18.81;94.37
9695;BME280;4690;52.422;13.486;2023-08-06T08:27:49;100183.13;;;18.84;94.03
9695;BME280;4690;52.422;13.486;2023-08-06T08:30:15;100180.34;;;18.84;94.40
9695;BME280;4690;52.422;13.486;2023-08-06T08:32:41;100176.13;;;18.86;94.35
9695;BME280;4690;52.422;13.486;2023-08-06T08:35:07;100168.91;;;18.90;94.09
9695;BME280;4690;52.422;13.486;2023-08-06T08:37:33;100171.91;;;18.94;94.15
9695;BME280;4690;52.422;13.486;2023-08-06T08:39:59;100168.47;;;19.02;94.55
9695;BME280;4690;52.422;13.486;2023-08-06T08:42:26;100158.94;;;19.08;94.35
9695;BME280;4690;52.422;13.486;2023-08-06T08:44:53;100151.88;;;19.16;94.32
9695;BME280;4690;52.422;13.486;2023-08-06T08:47:20;100153.19;;;19.23;93.96
9695;BME280;4690;52.422;13.486;2023-08-06T08:49:47;100145.59;;;19.29;94.10
9695;BME280;4690;52.422;13.486;2023-08-06T08:52:16;100141.09;;;19.33;94.09
9695;BME280;4690;52.422;13.486;2023-08-06T08:54:44;100139.38;;;19.37;94.27
9695;BME280;4690;52.422;13.486;2023-08-06T08:57:11;100136.50;;;19.42;94.07
9695;BME280;4690;52.422;13.486;2023-08-06T08:59:37;100133.44;;;19.44;94.04
9695;BME280;4690;52.422;13.486;2023-08-06T09:02:02;100142.28;;;19.46;93.93
9695;BME280;4690;52.422;13.486;2023-08-06T09:04:32;100126.66;;;19.50;93.75
9695;BME280;4690;52.422;13.486;2023-08-06T09:06:59;100131.31;;;19.55;94.09
9695;BME280;4690;52.422;13.486;2023-08-06T09:09:35;100117.94;;;19.57;93.82
9695;BME280;4690;52.422;13.486;2023-08-06T09:12:12;100122.91;;;19.60;93.72
9695;BME280;4690;52.422;13.486;2023-08-06T09:14:38;100108.41;;;19.63;93.97
9695;BME280;4690;52.422;13.486;2023-08-06T09:17:04;100113.88;;;19.68;93.88
9695;BME280;4690;52.422;13.486;2023-08-06T09:19:32;100112.47;;;19.70;93.68
9695;BME280;4690;52.422;13.486;2023-08-06T09:21:59;100117.72;;;19.72;93.42
9695;BME280;4690;52.422;13.486;2023-08-06T09:24:25;100111.84;;;19.74;93.15
9695;BME280;4690;52.422;13.486;2023-08-06T09:26:54;100111.25;;;19.77;93.27
9695;BME280;4690;52.422;13.486;2023-08-06T09:29:20;100102.59;;;19.78;93.52
9695;BME280;4690;52.422;13.486;2023-08-06T09:31:50;100100.56;;;19.84;93.39
9695;BME280;4690;52.422;13.486;2023-08-06T09:34:21;100106.31;;;19.87;92.97
9695;BME280;4690;52.422;13.486;2023-08-06T09:36:53;100098.00;;;19.87;92.53
9695;BME280;4690;52.422;13.486;2023-08-06T09:39:27;100096.34;;;19.86;92.67
9695;BME280;4690;52.422;13.486;2023-08-06T09:41:59;100093.56;;;19.86;92.73
9695;BME280;4690;52.422;13.486;2023-08-06T09:44:27;100088.22;;;19.90;92.91
9695;BME280;4690;52.422;13.486;2023-08-06T09:46:58;100089.75;;;19.96;92.96
9695;BME280;4690;52.422;13.486;2023-08-06T09:52:00;100086.69;;;19.98;93.42
9695;BME280;4690;52.422;13.486;2023-08-06T09:54:27;100080.50;;;20.01;93.26
9695;BME280;4690;52.422;13.486;2023-08-06T09:56:54;100075.78;;;20.01;93.16
9695;BME280;4690;52.422;13.486;2023-08-06T09:59:21;100081.66;;;20.00;93.24
9695;BME280;4690;52.422;13.486;2023-08-06T10:01:48;100079.16;;;19.98;93.23
9695;BME280;4690;52.422;13.486;2023-08-06T10:04:15;100080.59;;;19.96;92.70
9695;BME280;4690;52.422;13.486;2023-08-06T10:06:43;100070.91;;;19.93;92.85
9695;BME280;4690;52.422;13.486;2023-08-06T10:09:11;100071.84;;;19.88;92.73
9695;BME280;4690;52.422;13.486;2023-08-06T10:11:39;100070.19;;;19.87;92.54
9695;BME280;4690;52.422;13.486;2023-08-06T10:14:21;100064.94;;;19.86;92.39
9695;BME280;4690;52.422;13.486;2023-08-06T10:16:49;100069.69;;;19.85;92.51
9695;BME280;4690;52.422;13.486;2023-08-06T10:19:18;100059.66;;;19.84;92.57
9695;BME280;4690;52.422;13.486;2023-08-06T10:22:10;100062.44;;;19.84;92.75
9695;BME280;4690;52.422;13.486;2023-08-06T10:24:59;100052.47;;;19.83;92.36
9695;BME280;4690;52.422;13.486;2023-08-06T10:27:34;100059.19;;;19.82;92.07
9695;BME280;4690;52.422;13.486;2023-08-06T10:33:03;100050.47;;;19.70;92.46
9695;BME280;4690;52.422;13.486;2023-08-06T10:38:11;100044.47;;;19.63;92.92
9695;BME280;4690;52.422;13.486;2023-08-06T10:40:40;100054.53;;;19.59;92.77
9695;BME280;4690;52.422;13.486;2023-08-06T10:43:07;100050.31;;;19.61;92.59
9695;BME280;4690;52.422;13.486;2023-08-06T10:45:36;100054.25;;;19.60;92.56
9695;BME280;4690;52.422;13.486;2023-08-06T10:48:02;100050.09;;;19.58;92.41
9695;BME280;4690;52.422;13.486;2023-08-06T10:50:28;100054.31;;;19.55;92.90
9695;BME280;4690;52.422;13.486;2023-08-06T10:52:54;100049.38;;;19.52;93.18
9695;BME280;4690;52.422;13.486;2023-08-06T10:55:26;100046.38;;;19.48;93.17
9695;BME280;4690;52.422;13.486;2023-08-06T10:57:54;100051.28;;;19.38;93.13
9695;BME280;4690;52.422;13.486;2023-08-06T11:00:24;100040.03;;;19.29;93.15
9695;BME280;4690;52.422;13.486;2023-08-06T11:02:52;100046.19;;;19.26;93.57
9695;BME280;4690;52.422;13.486;2023-08-06T11:05:18;100030.94;;;19.23;93.79
9695;BME280;4690;52.422;13.486;2023-08-06T11:07:44;100026.22;;;19.24;94.17
9695;BME280;4690;52.422;13.486;2023-08-06T11:10:12;100030.84;;;19.29;94.23
9695;BME280;4690;52.422;13.486;2023-08-06T11:12:38;100026.03;;;19.34;94.49
9695;BME280;4690;52.422;13.486;2023-08-06T11:15:05;100023.41;;;19.43;94.58
9695;BME280;4690;52.422;13.486;2023-08-06T11:17:33;100020.22;;;19.49;94.92
9695;BME280;4690;52.422;13.486;2023-08-06T11:20:04;100020.97;;;19.55;95.06
9695;BME280;4690;52.422;13.486;2023-08-06T11:22:30;100016.34;;;19.64;94.96
9695;BME280;4690;52.422;13.486;2023-08-06T11:24:57;100016.59;;;19.68;95.25
9695;BME280;4690;52.422;13.486;2023-08-06T11:27:23;100016.22;;;19.75;95.28
9695;BME280;4690;52.422;13.486;2023-08-06T11:29:52;100015.88;;;19.76;95.17
9695;BME280;4690;52.422;13.486;2023-08-06T11:32:18;100002.84;;;19.77;95.12
9695;BME280;4690;52.422;13.486;2023-08-06T11:34:44;100008.41;;;19.77;95.15
9695;BME280;4690;52.422;13.486;2023-08-06T11:37:10;100000.53;;;19.79;95.29
9695;BME280;4690;52.422;13.486;2023-08-06T11:39:38;99990.25;;;19.79;95.29
9695;BME280;4690;52.422;13.486;2023-08-06T11:42:07;99995.50;;;19.81;95.47
9695;BME280;4690;52.422;13.486;2023-08-06T11:44:36;99994.06;;;19.83;95.38
9695;BME280;4690;52.422;13.486;2023-08-06T11:47:04;99991.50;;;19.87;95.50
9695;BME280;4690;52.422;13.486;2023-08-06T11:49:49;99981.19;;;19.87;95.46
9695;BME280;4690;52.422;13.486;2023-08-06T11:52:24;99988.09;;;19.90;95.65
9695;BME280;4690;52.422;13.486;2023-08-06T11:55:05;99983.88;;;19.92;95.65
9695;BME280;4690;52.422;13.486;2023-08-06T11:57:44;99977.69;;;19.96;95.74
9695;BME280;4690;52.422;13.486;2023-08-06T12:00:14;99977.94;;;19.99;95.55
9695;BME280;4690;52.422;13.486;2023-08-06T12:02:42;99976.47;;;20.02;95.77
9695;BME280;4690;52.422;13.486;2023-08-06T12:07:43;99968.00;;;20.07;95.69
9695;BME280;4690;52.422;13.486;2023-08-06T12:10:11;99976.25;;;20.12;96.27
9695;BME280;4690;52.422;13.486;2023-08-06T12:12:37;99972.03;;;20.14;96.07
9695;BME280;4690;52.422;13.486;2023-08-06T12:15:06;99974.00;;;20.14;95.85
9695;BME280;4690;52.422;13.486;2023-08-06T12:17:32;99963.69;;;20.14;95.70
9695;BME280;4690;52.422;13.486;2023-08-06T12:19:58;99962.88;;;20.14;96.22
9695;BME280;4690;52.422;13.486;2023-08-06T12:22:25;99961.53;;;20.11;95.89
9695;BME280;4690;52.422;13.486;2023-08-06T12:24:51;99962.69;;;20.10;95.53
9695;BME280;4690;52.422;13.486;2023-08-06T12:27:16;99964.84;;;20.00;95.15
9695;BME280;4690;52.422;13.486;2023-08-06T12:29:44;99969.06;;;19.97;94.89
9695;BME280;4690;52.422;13.486;2023-08-06T12:32:12;99968.34;;;19.91;95.06
9695;BME280;4690;52.422;13.486;2023-08-06T12:34:39;99975.34;;;19.89;94.38
9695;BME280;4690;52.422;13.486;2023-08-06T12:37:05;99981.31;;;19.82;95.02
9695;BME280;4690;52.422;13.486;2023-08-06T12:39:32;99968.00;;;19.79;95.01
9695;BME280;4690;52.422;13.486;2023-08-06T12:42:02;99978.63;;;19.77;95.09
9695;BME280;4690;52.422;13.486;2023-08-06T12:44:28;99966.97;;;19.75;95.25
9695;BME280;4690;52.422;13.486;2023-08-06T12:46:54;99975.22;;;19.66;94.82
9695;BME280;4690;52.422;13.486;2023-08-06T12:49:20;99976.41;;;19.60;94.91
9695;BME280;4690;52.422;13.486;2023-08-06T12:51:48;99968.38;;;19.59;94.94
9695;BME280;4690;52.422;13.486;2023-08-06T12:54:14;99967.44;;;19.49;94.98
9695;BME280;4690;52.422;13.486;2023-08-06T12:56:40;99974.72;;;19.45;95.00
9695;BME280;4690;52.422;13.486;2023-08-06T12:59:05;99965.63;;;19.40;94.92
9695;BME280;4690;52.422;13.486;2023-08-06T13:01:31;99964.91;;;19.34;94.77
9695;BME280;4690;52.422;13.486;2023-08-06T13:03:59;99961.72;;;19.27;94.90
9695;BME280;4690;52.422;13.486;2023-08-06T13:06:25;99959.84;;;19.22;94.72
9695;BME280;4690;52.422;13.486;2023-08-06T13:08:50;99964.56;;;19.22;95.01
9695;BME280;4690;52.422;13.486;2023-08-06T13:11:16;99962.19;;;19.15;95.38
9695;BME280;4690;52.422;13.486;2023-08-06T13:13:42;99958.34;;;19.11;95.14
9695;BME280;4690;52.422;13.486;2023-08-06T13:16:08;99963.50;;;19.04;95.82
9695;BME280;4690;52.422;13.486;2023-08-06T13:18:34;99953.72;;;19.07;96.06
9695;BME280;4690;52.422;13.486;2023-08-06T13:20:59;99966.25;;;19.04;96.14
9695;BME280;4690;52.422;13.486;2023-08-06T13:23:25;99967.28;;;19.08;96.11
9695;BME280;4690;52.422;13.486;2023-08-06T13:25:51;99966.88;;;19.01;96.29